Time;durP1;ratioP1;P1;durP2;ratioP2;P2;SDS_P1;SDS_P2;PMS_P1;PMS_P2;Temp;Humidity;BMP_temperature;BMP_pressure;BME280_temperature;BME280_humidity;BME280_pressure;Samples;Min_cycle;Max_cycle;Signal;HPM_P1;HPM_P2
2022/02/25 00:01:21;;;;;;;2.60;1.57;;;4.20;1.00;4.30;100641.00;;;;5032801;28;20557;-81
2022/02/25 00:03:50;;;;;;;2.90;1.60;;;4.10;1.00;4.40;100664.00;;;;5028158;28;20512;-79
2022/02/25 00:06:21;;;;;;;1.97;1.30;;;4.50;1.00;4.40;100676.00;;;;5025942;28;20453;-81
2022/02/25 00:08:50;;;;;;;3.30;1.30;;;4.10;1.00;4.40;100647.00;;;;5025472;28;20564;-80
2022/02/25 00:11:19;;;;;;;2.97;1.37;;;4.00;1.00;4.40;100673.00;;;;5029582;28;21371;-81
2022/02/25 00:13:47;;;;;;;2.30;1.40;;;4.00;1.00;4.40;100679.00;;;;5038341;28;20477;-81
2022/02/25 00:16:15;;;;;;;2.50;1.50;;;4.10;1.00;4.40;100675.00;;;;5023522;28;20454;-79
2022/02/25 00:18:45;;;;;;;3.90;1.50;;;4.20;1.00;4.50;100700.00;;;;5022560;28;20557;-80
2022/02/25 00:21:14;;;;;;;2.33;1.17;;;4.10;1.00;4.40;100689.00;;;;5028496;28;20510;-81
2022/02/25 00:23:42;;;;;;;3.13;1.43;;;4.10;1.00;4.40;100705.00;;;;5038818;28;20497;-81
2022/02/25 00:26:12;;;;;;;2.97;1.30;;;4.20;1.00;4.40;100683.00;;;;5028468;28;20468;-80
2022/02/25 00:28:41;;;;;;;2.00;1.33;;;4.10;1.00;4.40;100666.00;;;;5019225;28;20528;-80
2022/02/25 00:31:09;;;;;;;2.90;1.50;;;4.10;1.00;4.40;100663.00;;;;5036507;28;20484;-80
2022/02/25 00:33:38;;;;;;;1.93;1.40;;;4.10;1.00;4.40;100713.00;;;;5035477;28;20468;-80
2022/02/25 00:36:07;;;;;;;3.60;1.50;;;4.10;1.00;4.40;100705.00;;;;5036009;28;20453;-80
2022/02/25 00:38:35;;;;;;;3.63;1.60;;;4.10;1.00;4.40;100714.00;;;;5020142;28;20453;-81
2022/02/25 00:41:04;;;;;;;3.00;1.63;;;4.10;1.00;4.40;100725.00;;;;5022675;28;20511;-79
2022/02/25 00:43:33;;;;;;;2.70;1.43;;;4.10;1.00;4.40;100719.00;;;;5035637;28;20476;-80
2022/02/25 00:46:02;;;;;;;2.17;1.40;;;4.10;1.00;4.40;100717.00;;;;5020462;28;20456;-81
2022/02/25 00:48:30;;;;;;;3.43;1.70;;;4.10;1.00;4.40;100739.00;;;;5033158;28;20893;-80
2022/02/25 00:51:01;;;;;;;2.87;1.67;;;4.10;1.00;4.30;100750.00;;;;5033399;28;20461;-81
2022/02/25 00:53:30;;;;;;;5.67;1.70;;;4.00;1.00;4.30;100745.00;;;;5024242;28;20524;-81
2022/02/25 00:55:58;;;;;;;2.73;1.50;;;4.30;1.00;4.40;100746.00;;;;5040010;28;20995;-80
2022/02/25 00:58:26;;;;;;;2.20;1.53;;;4.00;1.00;4.40;100724.00;;;;5023440;28;20733;-81
2022/02/25 01:00:57;;;;;;;4.27;1.70;;;4.00;1.00;4.30;100749.00;;;;5022434;28;20463;-81
2022/02/25 01:03:26;;;;;;;6.93;1.83;;;4.00;1.00;4.30;100750.00;;;;5021937;28;21027;-80
2022/02/25 01:05:57;;;;;;;4.50;1.73;;;4.00;1.00;4.30;100754.00;;;;5020513;28;20642;-80
2022/02/25 01:08:28;;;;;;;3.13;1.60;;;4.00;1.00;4.30;100751.00;;;;5026905;28;20449;-79
2022/02/25 01:10:59;;;;;;;2.70;1.47;;;4.00;1.00;4.30;100765.00;;;;5052744;28;20834;-81
2022/02/25 01:13:27;;;;;;;3.97;1.47;;;4.00;1.00;4.20;100739.00;;;;5036585;28;20557;-81
2022/02/25 01:15:57;;;;;;;3.43;1.67;;;3.90;1.00;4.20;100768.00;;;;5032735;28;20520;-80
2022/02/25 01:18:25;;;;;;;4.03;2.20;;;3.90;1.00;4.20;100746.00;;;;5038788;28;20451;-81
2022/02/25 01:20:53;;;;;;;4.13;2.33;;;3.90;1.00;4.30;100762.00;;;;5048255;28;21168;-81
2022/02/25 01:23:22;;;;;;;4.10;1.60;;;4.00;1.00;4.30;100746.00;;;;5039697;28;20476;-81
2022/02/25 01:25:50;;;;;;;5.20;1.67;;;4.00;1.00;4.20;100773.00;;;;5050320;28;20535;-81
2022/02/25 01:28:19;;;;;;;5.00;1.80;;;3.90;1.00;4.20;100766.00;;;;5044225;28;20465;-81
2022/02/25 01:30:47;;;;;;;4.20;1.90;;;3.90;1.00;4.20;100770.00;;;;5041451;28;20487;-81
2022/02/25 01:33:16;;;;;;;3.00;1.60;;;3.90;1.00;4.20;100772.00;;;;5049287;28;20484;-81
2022/02/25 01:35:45;;;;;;;3.93;1.50;;;3.80;1.00;4.20;100734.00;;;;5035644;28;20468;-81
2022/02/25 01:38:13;;;;;;;3.43;1.57;;;3.80;1.00;4.20;100746.00;;;;5025804;28;20445;-82
2022/02/25 01:40:44;;;;;;;4.53;1.50;;;3.90;1.00;4.20;100752.00;;;;5025992;28;20544;-81
2022/02/25 01:43:12;;;;;;;2.70;1.20;;;3.90;1.00;4.20;100768.00;;;;5025905;28;20492;-80
2022/02/25 01:45:41;;;;;;;5.70;2.10;;;3.90;1.00;4.20;100759.00;;;;5032134;28;20461;-80
2022/02/25 01:48:10;;;;;;;4.80;1.40;;;3.90;1.00;4.20;100780.00;;;;5023908;28;20496;-80
2022/02/25 01:50:40;;;;;;;3.37;1.60;;;3.90;1.00;4.10;100794.00;;;;5042056;28;20484;-80
2022/02/25 01:53:09;;;;;;;4.67;1.73;;;4.20;1.00;4.20;100790.00;;;;5025360;28;20505;-80
2022/02/25 01:55:41;;;;;;;7.43;2.50;;;3.90;1.00;4.20;100774.00;;;;5041378;28;20468;-81
2022/02/25 01:58:11;;;;;;;3.70;2.00;;;3.90;1.00;4.20;100784.00;;;;5030432;28;20460;-81
2022/02/25 02:00:39;;;;;;;5.67;2.17;;;3.90;1.00;4.20;100797.00;;;;5023763;28;20484;-81
2022/02/25 02:03:08;;;;;;;4.03;2.20;;;4.00;1.00;4.20;100774.00;;;;5041784;28;20543;-81
2022/02/25 02:05:39;;;;;;;4.90;1.93;;;3.90;1.00;4.20;67170.00;;;;5026414;28;20457;-81
2022/02/25 02:08:08;;;;;;;5.53;2.07;;;3.80;1.00;4.20;100801.00;;;;5031229;28;20449;-81
2022/02/25 02:10:36;;;;;;;4.33;1.70;;;3.90;1.00;4.20;100781.00;;;;5025972;28;20568;-81
2022/02/25 02:13:05;;;;;;;3.67;1.70;;;3.90;1.00;217.30;158459.00;;;;5025736;28;20487;-81
2022/02/25 02:15:33;;;;;;;3.50;1.40;;;3.80;1.00;4.20;100804.00;;;;5028532;28;20448;-81
2022/02/25 02:18:02;;;;;;;5.33;1.67;;;3.80;1.00;4.10;100816.00;;;;5023036;28;20476;-80
2022/02/25 02:20:30;;;;;;;7.80;2.70;;;4.00;1.00;4.10;100793.00;;;;5024417;28;20746;-80
2022/02/25 02:23:01;;;;;;;2.70;1.30;;;3.70;1.00;4.00;100816.00;;;;5038714;28;20480;-80
2022/02/25 02:25:29;;;;;;;5.63;1.37;;;3.60;1.00;4.00;100807.00;;;;5039590;28;21460;-80
2022/02/25 02:30:44;;;;;;;5.63;1.70;;;3.60;1.00;4.00;100799.00;;;;5025245;28;20508;-81
2022/02/25 02:33:13;;;;;;;4.07;1.50;;;3.50;1.00;3.90;100829.00;;;;5022031;28;20508;-81
2022/02/25 02:35:42;;;;;;;6.50;1.37;;;3.60;1.00;4.00;100830.00;;;;5021523;28;20453;-81
2022/02/25 02:38:13;;;;;;;2.83;1.27;;;3.60;1.00;4.00;100804.00;;;;5020325;28;20460;-81
2022/02/25 02:40:41;;;;;;;4.57;1.60;;;3.50;1.00;4.00;100805.00;;;;5037953;28;20460;-81
2022/02/25 02:43:12;;;;;;;7.43;2.03;;;3.50;1.00;3.90;100825.00;;;;5020415;28;20487;-81
2022/02/25 02:45:41;;;;;;;3.40;1.40;;;3.70;1.00;3.90;100827.00;;;;5037536;28;20460;-81
2022/02/25 02:48:10;;;;;;;3.97;1.27;;;3.50;1.00;3.90;100826.00;;;;5019640;28;20551;-80
2022/02/25 02:50:39;;;;;;;3.53;1.43;;;3.60;1.00;4.00;100807.00;;;;5018178;28;20469;-80
2022/02/25 02:53:07;;;;;;;4.40;1.77;;;3.60;1.00;3.90;100844.00;;;;5020224;28;20851;-80
2022/02/25 02:55:37;;;;;;;2.57;1.60;;;3.50;1.00;3.80;100843.00;;;;5021398;28;20786;-81
2022/02/25 02:58:07;;;;;;;2.77;1.50;;;3.50;1.00;3.80;100832.00;;;;5020797;28;20456;-80
2022/02/25 03:00:36;;;;;;;3.07;1.10;;;3.40;1.00;3.90;100843.00;;;;5025921;28;20465;-81
2022/02/25 03:03:06;;;;;;;2.77;1.80;;;3.40;1.00;3.90;100827.00;;;;5022809;28;20537;-80
2022/02/25 03:05:36;;;;;;;2.47;1.10;;;3.40;1.00;3.90;100837.00;;;;5022699;28;20457;-80
2022/02/25 03:08:05;;;;;;;3.73;1.93;;;3.40;1.00;3.90;100846.00;;;;5026770;28;20800;-79
2022/02/25 03:10:36;;;;;;;3.50;1.30;;;3.40;1.00;3.90;100847.00;;;;5021178;28;20484;-80
2022/02/25 03:13:06;;;;;;;7.20;1.93;;;3.50;1.00;3.90;100850.00;;;;5022246;28;20477;-79
2022/02/25 03:15:35;;;;;;;3.20;1.50;;;3.50;1.00;3.90;100863.00;;;;5023709;28;20457;-80
2022/02/25 03:18:04;;;;;;;3.80;1.73;;;3.40;1.00;3.80;100873.00;;;;5036152;28;20449;-80
2022/02/25 03:20:32;;;;;;;5.70;1.40;;;3.30;1.00;3.80;100861.00;;;;5022137;28;21257;-80
2022/02/25 03:23:00;;;;;;;4.47;1.40;;;3.70;1.00;3.80;100876.00;;;;5037622;28;20469;-80
2022/02/25 03:25:29;;;;;;;3.50;1.50;;;3.30;1.00;3.80;100878.00;;;;5016908;28;20463;-81
2022/02/25 03:27:59;;;;;;;7.87;2.50;;;3.30;1.00;3.70;100854.00;;;;5022862;28;20966;-80
2022/02/25 03:30:30;;;;;;;3.97;1.60;;;3.20;1.00;3.70;100890.00;;;;5025769;28;20487;-81
2022/02/25 03:32:58;;;;;;;4.70;1.40;;;3.20;1.00;3.60;100878.00;;;;5022019;28;20485;-81
2022/02/25 03:35:27;;;;;;;3.93;1.60;;;3.10;1.00;3.60;100878.00;;;;5023672;28;21152;-81
2022/02/25 03:37:55;;;;;;;7.03;1.30;;;3.10;1.00;3.60;100881.00;;;;5015158;28;20519;-79
2022/02/25 03:40:24;;;;;;;6.40;1.40;;;3.00;1.00;3.60;100888.00;;;;5016834;28;20477;-79
2022/02/25 03:42:52;;;;;;;8.10;2.00;;;3.00;1.00;3.50;100890.00;;;;5017222;28;20484;-80
2022/02/25 03:45:22;;;;;;;2.90;1.50;;;3.00;1.00;3.40;100857.00;;;;5017381;28;20452;-79
2022/02/25 03:47:50;;;;;;;5.73;1.80;;;3.00;1.00;3.50;100891.00;;;;5016098;28;20465;-79
2022/02/25 03:50:20;;;;;;;5.57;1.57;;;3.10;1.00;3.50;100904.00;;;;5035834;28;20994;-80
2022/02/25 03:52:49;;;;;;;4.67;1.30;;;3.00;1.00;3.50;100897.00;;;;5019634;28;20486;-82
2022/02/25 03:55:17;;;;;;;7.00;2.40;;;3.00;1.00;3.60;100880.00;;;;5017582;28;20463;-80
2022/02/25 03:57:45;;;;;;;2.67;1.40;;;3.00;1.00;3.50;100893.00;;;;5035083;28;20452;-81
2022/02/25 04:00:16;;;;;;;6.13;1.40;;;3.00;1.00;3.50;100896.00;;;;5020619;28;20540;-82
2022/02/25 04:02:45;;;;;;;4.63;1.60;;;3.00;1.00;3.40;100893.00;;;;5028667;28;20536;-83
2022/02/25 04:05:14;;;;;;;4.33;2.00;;;2.90;1.00;3.50;100904.00;;;;5026358;28;20557;-82
2022/02/25 04:07:44;;;;;;;5.07;1.60;;;3.00;1.00;3.50;100894.00;;;;5028918;28;20450;-81
2022/02/25 04:10:13;;;;;;;3.40;1.53;;;3.20;1.00;3.40;100897.00;;;;5036297;28;20954;-81
2022/02/25 04:12:42;;;;;;;5.27;1.33;;;2.90;1.00;3.40;100908.00;;;;5019513;28;20468;-83
2022/02/25 04:15:11;;;;;;;4.40;2.40;;;2.80;1.00;3.30;100889.00;;;;5018725;28;20454;-79
2022/02/25 04:17:40;;;;;;;6.03;1.70;;;2.70;1.00;3.40;100904.00;;;;5024230;28;20543;-82
2022/02/25 04:20:11;;;;;;;4.67;1.33;;;2.80;1.00;3.40;100911.00;;;;5024106;28;20452;-80
2022/02/25 04:22:40;;;;;;;5.30;1.40;;;2.80;1.00;3.30;100907.00;;;;5025871;28;20496;-79
2022/02/25 04:25:09;;;;;;;4.10;1.50;;;2.70;1.00;3.30;100912.00;;;;5041158;28;20523;-80
2022/02/25 04:27:39;;;;;;;3.07;1.50;;;2.70;1.00;3.30;100915.00;;;;5040495;28;20496;-82
2022/02/25 04:30:09;;;;;;;5.10;1.20;;;2.70;1.00;3.30;100917.00;;;;5058694;28;20460;-80
2022/02/25 04:32:37;;;;;;;3.10;1.70;;;2.70;1.00;3.30;100919.00;;;;5042214;28;20504;-83
2022/02/25 04:35:07;;;;;;;4.87;1.80;;;2.70;1.00;3.30;100917.00;;;;5036595;28;20530;-79
2022/02/25 04:37:37;;;;;;;3.03;1.57;;;2.70;1.00;3.30;100911.00;;;;5039949;28;20532;-83
2022/02/25 04:40:08;;;;;;;4.83;1.70;;;2.70;1.00;3.30;100910.00;;;;5042429;28;20447;-80
2022/02/25 04:42:37;;;;;;;5.77;2.00;;;2.70;1.00;3.20;100929.00;;;;5052947;28;20512;-80
2022/02/25 04:45:08;;;;;;;3.03;1.50;;;2.80;1.00;3.20;100898.00;;;;5036044;28;20561;-83
2022/02/25 04:47:39;;;;;;;3.63;1.20;;;2.70;1.00;3.30;100932.00;;;;5037297;28;20496;-81
2022/02/25 04:50:09;;;;;;;3.73;1.70;;;2.70;1.00;3.20;100922.00;;;;5043893;28;20501;-83
2022/02/25 04:52:41;;;;;;;6.50;2.13;;;2.70;1.00;3.20;100908.00;;;;5044918;28;20524;-83
2022/02/25 04:55:11;;;;;;;6.33;1.57;;;2.70;1.00;3.20;100911.00;;;;5046959;28;20453;-83
2022/02/25 04:57:43;;;;;;;4.90;1.87;;;2.70;1.00;3.30;100920.00;;;;5062447;28;20965;-83
2022/02/25 05:00:14;;;;;;;4.53;1.70;;;2.70;1.00;3.30;100940.00;;;;5050538;28;20475;-85
2022/02/25 05:02:43;;;;;;;6.00;1.90;;;2.70;1.00;3.30;100926.00;;;;5052967;28;20521;-85
2022/02/25 05:05:12;;;;;;;5.67;1.97;;;2.90;1.00;3.30;100911.00;;;;5044765;28;20446;-84
2022/02/25 05:07:44;;;;;;;6.60;2.57;;;2.70;1.00;3.20;100924.00;;;;5047189;28;20512;-84
2022/02/25 05:10:12;;;;;;;7.20;1.90;;;2.90;1.00;3.30;100936.00;;;;5039423;28;20464;-83
2022/02/25 05:12:43;;;;;;;7.83;2.03;;;2.70;1.00;3.40;100935.00;;;;5049868;28;20543;-80
2022/02/25 05:20:46;;;;;;;5.47;1.90;;;2.80;1.00;3.30;100939.00;;;;5024328;28;20449;-83
2022/02/25 05:23:16;;;;;;;6.80;2.10;;;2.70;1.00;3.30;100937.00;;;;5023147;28;20482;-79
2022/02/25 05:25:47;;;;;;;5.40;1.67;;;2.90;1.00;3.30;100956.00;;;;5020645;28;20452;-79
2022/02/25 05:28:15;;;;;;;3.40;2.10;;;2.70;1.00;3.30;100950.00;;;;5019265;28;20467;-79
2022/02/25 05:30:44;;;;;;;4.30;1.93;;;2.70;1.00;3.20;100950.00;;;;5018321;28;20462;-80
2022/02/25 05:33:13;;;;;;;5.10;2.00;;;2.60;1.00;3.20;100959.00;;;;5017726;28;20466;-79
2022/02/25 05:35:41;;;;;;;10.10;1.90;;;2.60;1.00;3.20;100963.00;;;;5016170;28;20454;-82
2022/02/25 05:38:10;;;;;;;9.70;2.30;;;2.60;1.00;3.20;100961.00;;;;5021039;28;20843;-79
2022/02/25 05:40:40;;;;;;;3.90;1.60;;;2.70;1.00;3.30;100981.00;;;;5014147;28;20475;-79
2022/02/25 05:43:08;;;;;;;7.60;1.63;;;2.70;1.00;3.30;100992.00;;;;5032361;28;20546;-79
2022/02/25 05:45:37;;;;;;;13.77;2.20;;;2.70;1.00;3.20;100985.00;;;;5016809;28;20466;-81
2022/02/25 05:48:06;;;;;;;10.20;2.03;;;2.20;1.00;3.20;100994.00;;;;5017049;28;20458;-80
2022/02/25 05:50:34;;;;;;;4.63;2.60;;;2.70;1.00;3.20;100996.00;;;;5017797;28;20457;-82
2022/02/25 05:53:02;;;;;;;8.87;1.80;;;2.60;1.00;3.20;66953.00;;;;5016668;28;20477;-80
2022/02/25 05:55:31;;;;;;;7.13;1.73;;;2.60;1.00;3.20;100982.00;;;;5014171;28;20454;-80
2022/02/25 05:58:01;;;;;;;5.67;2.40;;;3.00;1.00;3.20;101002.00;;;;5034683;28;20456;-80
2022/02/25 06:00:29;;;;;;;8.90;2.10;;;2.60;1.00;3.20;100996.00;;;;5032672;28;20540;-82
2022/02/25 06:02:58;;;;;;;4.83;1.80;;;2.60;1.00;3.20;101011.00;;;;5020998;28;20912;-80
2022/02/25 06:05:29;;;;;;;14.43;3.07;;;2.60;1.00;3.20;101003.00;;;;5019598;28;20455;-80
2022/02/25 06:07:59;;;;;;;8.80;1.90;;;2.60;1.00;3.20;101015.00;;;;5017909;28;20446;-82
2022/02/25 06:10:32;;;;;;;6.27;2.17;;;2.70;1.00;3.30;101004.00;;;;5019939;28;20457;-81
2022/02/25 06:13:02;;;;;;;4.30;1.70;;;2.70;1.00;3.40;101004.00;;;;5019457;28;21020;-79
2022/02/25 06:15:30;;;;;;;9.03;2.27;;;2.80;1.00;3.30;100969.00;;;;5017137;28;20832;-84
2022/02/25 06:18:01;;;;;;;5.90;2.03;;;2.90;1.00;3.20;101020.00;;;;5026132;28;20463;-83
2022/02/25 06:20:29;;;;;;;7.77;2.80;;;2.70;1.00;3.30;101018.00;;;;5017136;28;20454;-80
2022/02/25 06:22:57;;;;;;;7.10;1.70;;;2.70;1.00;3.30;101025.00;;;;5017728;28;20484;-83
2022/02/25 06:25:27;;;;;;;7.43;2.30;;;2.70;1.00;3.30;101018.00;;;;5033055;28;20460;-82
2022/02/25 06:27:55;;;;;;;5.70;2.07;;;2.70;1.00;3.20;101019.00;;;;5035054;28;20465;-82
2022/02/25 06:30:25;;;;;;;3.40;1.17;;;2.70;1.00;3.30;101022.00;;;;5018479;28;20566;-81
2022/02/25 06:32:53;;;;;;;8.93;2.70;;;2.70;1.00;3.30;101003.00;;;;5018922;28;20487;-80
2022/02/25 06:35:23;;;;;;;5.90;2.00;;;2.70;1.00;3.20;101033.00;;;;5016403;28;20453;-80
2022/02/25 06:37:52;;;;;;;7.53;2.03;;;2.70;1.00;3.20;101029.00;;;;5037266;28;20487;-80
2022/02/25 06:40:20;;;;;;;8.60;2.87;;;2.60;1.00;3.20;101021.00;;;;5038312;28;21235;-80
2022/02/25 06:42:49;;;;;;;8.20;3.20;;;2.60;1.00;3.20;101022.00;;;;5020138;28;20527;-80
2022/02/25 06:45:17;;;;;;;6.93;2.07;;;2.70;1.00;3.30;101040.00;;;;5023463;28;20489;-80
2022/02/25 06:47:48;;;;;;;5.80;2.10;;;2.70;1.00;3.30;101034.00;;;;5021749;28;20461;-81
2022/02/25 06:50:19;;;;;;;7.20;1.97;;;2.70;1.00;3.50;101041.00;;;;5027963;28;20457;-79
2022/02/25 06:52:47;;;;;;;8.20;2.20;;;2.90;1.00;3.50;101039.00;;;;5036990;28;20556;-80
2022/02/25 06:55:17;;;;;;;7.57;2.13;;;2.90;1.00;3.60;101029.00;;;;5036979;28;20452;-79
2022/02/25 06:58:04;;;;;;;6.93;2.13;;;2.90;1.00;3.60;101052.00;;;;5023908;28;20524;-80
2022/02/25 07:00:33;;;;;;;7.47;2.60;;;3.00;1.00;3.70;101040.00;;;;5021310;28;20543;-81
2022/02/25 07:03:04;;;;;;;7.90;2.50;;;3.10;1.00;3.60;101051.00;;;;5036803;28;20588;-80
2022/02/25 07:05:34;;;;;;;10.27;2.93;;;3.00;1.00;3.70;101052.00;;;;5019247;28;20457;-79
2022/02/25 07:08:02;;;;;;;8.73;1.90;;;3.10;1.00;3.70;101064.00;;;;5020804;28;21173;-80
2022/02/25 07:10:33;;;;;;;6.93;2.10;;;3.10;1.00;3.70;101031.00;;;;5020133;28;20457;-80
2022/02/25 07:13:05;;;;;;;6.33;2.30;;;3.10;1.00;3.80;101053.00;;;;5020518;28;20496;-81
2022/02/25 07:15:34;;;;;;;6.00;1.60;;;3.10;1.00;3.90;101046.00;;;;5021715;28;20529;-80
2022/02/25 07:18:04;;;;;;;5.17;2.10;;;3.20;1.00;3.90;101051.00;;;;5025340;28;20806;-80
2022/02/25 07:20:33;;;;;;;10.10;2.50;;;3.30;1.00;4.00;101063.00;;;;5020219;28;20453;-78
2022/02/25 07:23:02;;;;;;;5.70;2.37;;;3.50;1.00;4.00;101069.00;;;;5033613;28;20560;-77
2022/02/25 07:25:31;;;;;;;6.37;2.50;;;3.40;1.00;4.20;101061.00;;;;5023950;28;20485;-79
2022/02/25 07:28:03;;;;;;;7.27;2.70;;;4.00;1.00;4.40;101071.00;;;;5021722;28;21119;-80
2022/02/25 07:30:32;;;;;;;7.50;2.73;;;3.80;1.00;4.30;101066.00;;;;5024464;28;20493;-80
2022/02/25 07:33:01;;;;;;;10.47;2.87;;;3.70;1.00;4.40;101080.00;;;;5019135;28;20484;-78
2022/02/25 07:35:31;;;;;;;6.30;2.43;;;3.80;1.00;4.40;101035.00;;;;5021989;28;21356;-82
2022/02/25 07:38:01;;;;;;;5.40;2.20;;;4.20;1.00;4.50;101044.00;;;;5026841;28;20924;-81
2022/02/25 07:40:30;;;;;;;7.73;2.50;;;3.90;1.00;4.60;101066.00;;;;5028308;28;20457;-78
2022/02/25 07:42:59;;;;;;;10.97;2.93;;;4.00;1.00;4.70;101080.00;;;;5032652;28;20469;-82
2022/02/25 07:45:28;;;;;;;5.80;2.83;;;4.20;1.00;4.80;101040.00;;;;5067170;28;20457;-82
2022/02/25 07:47:57;;;;;;;7.20;2.57;;;4.20;1.00;4.80;101074.00;;;;5028396;28;20450;-81
2022/02/25 07:50:27;;;;;;;8.90;2.60;;;4.30;1.00;4.90;101095.00;;;;5038103;28;20458;-80
2022/02/25 07:52:57;;;;;;;7.80;2.87;;;4.30;1.00;4.90;101101.00;;;;5023272;28;20491;-79
2022/02/25 07:55:30;;;;;;;8.23;3.00;;;4.30;1.00;4.90;101085.00;;;;5023163;28;20457;-79
2022/02/25 07:57:58;;;;;;;8.77;2.70;;;4.40;1.00;5.00;101106.00;;;;5023303;28;20454;-80
2022/02/25 08:00:29;;;;;;;8.57;3.07;;;4.50;1.00;5.00;101107.00;;;;5023489;28;20455;-78
2022/02/25 08:02:59;;;;;;;5.80;1.97;;;4.40;1.00;4.80;101096.00;;;;5021989;28;21066;-79
2022/02/25 08:05:31;;;;;;;7.37;2.90;;;4.30;1.00;4.80;101093.00;;;;5034862;28;20469;-79
2022/02/25 08:08:02;;;;;;;7.30;2.60;;;4.30;1.00;4.90;101102.00;;;;5041049;28;20876;-78
2022/02/25 08:10:32;;;;;;;8.10;3.03;;;4.30;1.00;4.90;101104.00;;;;5019690;28;20463;-82
2022/02/25 08:13:01;;;;;;;12.93;2.73;;;4.30;1.00;5.10;101119.00;;;;5017654;28;20500;-80
2022/02/25 08:15:33;;;;;;;8.10;3.00;;;4.50;1.00;5.20;101086.00;;;;5019583;28;20457;-76
2022/02/25 08:18:02;;;;;;;9.30;3.33;;;4.60;1.00;5.30;101115.00;;;;5033373;28;20457;-77
2022/02/25 08:20:33;;;;;;;8.00;2.90;;;4.70;1.00;5.60;101115.00;;;;5016494;28;20450;-79
2022/02/25 08:23:04;;;;;;;8.23;3.00;;;5.00;1.00;5.80;101111.00;;;;5021583;28;21216;-78
2022/02/25 08:25:36;;;;;;;6.83;3.57;;;5.60;1.00;5.90;101099.00;;;;5015584;28;20477;-78
2022/02/25 08:28:07;;;;;;;10.77;3.10;;;5.40;1.00;5.90;101051.00;;;;5024871;28;20518;-76
2022/02/25 08:30:38;;;;;;;13.40;3.70;;;5.40;1.00;5.90;101101.00;;;;5026476;28;20477;-80
2022/02/25 08:33:06;;;;;;;10.60;3.00;;;5.40;1.00;5.70;101104.00;;;;5016503;28;20499;-80
2022/02/25 08:35:36;;;;;;;10.07;3.60;;;5.20;1.00;5.50;101099.00;;;;5024265;28;21031;-79
2022/02/25 08:38:08;;;;;;;8.77;2.70;;;5.00;1.00;5.60;101096.00;;;;5020869;28;20453;-80
2022/02/25 08:40:39;;;;;;;7.53;3.23;;;5.20;1.00;5.80;101115.00;;;;5023660;28;20471;-80
2022/02/25 08:43:08;;;;;;;9.90;4.30;;;5.20;1.00;217.30;159278.00;;;;5041218;28;20524;-83
2022/02/25 08:45:41;;;;;;;12.10;3.70;;;5.50;1.00;6.50;101090.00;;;;5033200;28;20462;-84
2022/02/25 08:48:11;;;;;;;6.53;2.40;;;5.90;1.00;6.50;101069.00;;;;5029227;28;20467;-81
2022/02/25 08:50:41;;;;;;;8.63;3.97;;;6.00;1.00;6.80;101092.00;;;;5045792;28;20546;-82
2022/02/25 08:53:11;;;;;;;9.20;3.70;;;6.60;1.00;6.90;101106.00;;;;5032685;28;20541;-80
2022/02/25 08:55:41;;;;;;;8.20;3.43;;;6.50;1.00;6.70;101085.00;;;;5031651;28;20485;-79
2022/02/25 08:58:10;;;;;;;13.00;3.33;;;6.30;1.00;6.90;101089.00;;;;5026901;28;20540;-81
2022/02/25 09:00:39;;;;;;;10.77;3.70;;;6.40;1.00;6.90;101094.00;;;;5032052;28;20476;-80
2022/02/25 09:03:08;;;;;;;9.40;4.07;;;6.30;1.00;7.10;101090.00;;;;5037310;28;20497;-80
2022/02/25 09:05:37;;;;;;;8.43;2.80;;;6.50;1.00;7.40;101076.00;;;;5031608;28;20457;-78
2022/02/25 09:08:06;;;;;;;8.73;2.90;;;6.80;1.00;7.50;101113.00;;;;5040739;28;20445;-79
2022/02/25 09:10:37;;;;;;;8.63;2.90;;;7.00;1.00;7.60;101092.00;;;;5037449;28;20488;-78
2022/02/25 09:13:06;;;;;;;14.10;3.00;;;7.10;1.00;8.00;101080.00;;;;5049478;28;20477;-78
2022/02/25 09:15:34;;;;;;;10.17;2.83;;;7.50;1.00;8.00;101115.00;;;;5036941;28;20455;-79
2022/02/25 09:18:05;;;;;;;6.43;3.20;;;7.70;1.00;7.80;101105.00;;;;5029427;28;20450;-78
2022/02/25 09:20:33;;;;;;;6.37;2.70;;;7.50;1.00;7.50;101115.00;;;;5040984;28;20453;-79
2022/02/25 09:23:02;;;;;;;8.40;3.87;;;7.10;1.00;7.50;101120.00;;;;5034997;28;20482;-78
2022/02/25 09:25:30;;;;;;;10.17;4.10;;;7.10;1.00;7.60;101079.00;;;;5037716;28;20440;-78
2022/02/25 09:28:00;;;;;;;10.13;3.30;;;7.20;1.00;7.90;101095.00;;;;5044126;28;20463;-78
2022/02/25 09:30:30;;;;;;;7.80;3.27;;;7.40;1.00;7.90;101103.00;;;;5031600;28;20480;-79
2022/02/25 09:32:58;;;;;;;11.43;4.43;;;7.40;1.00;7.80;101109.00;;;;5039236;28;20549;-80
2022/02/25 09:35:27;;;;;;;9.33;3.03;;;7.40;1.00;7.50;101103.00;;;;5049629;28;20456;-77
2022/02/25 09:37:55;;;;;;;6.73;2.90;;;7.10;1.00;7.50;101089.00;;;;5054187;28;20460;-77
2022/02/25 09:40:24;;;;;;;8.43;3.10;;;7.10;1.00;7.40;101109.00;;;;5039450;28;20437;-77
2022/02/25 09:42:53;;;;;;;13.60;3.40;;;7.00;1.00;7.20;101110.00;;;;5044745;28;20517;-79
2022/02/25 09:45:23;;;;;;;12.87;3.13;;;6.80;1.00;7.20;101087.00;;;;5053731;28;20468;-79
2022/02/25 09:47:53;;;;;;;9.60;2.50;;;6.90;1.00;7.10;101094.00;;;;5036742;28;20449;-77
2022/02/25 09:50:24;;;;;;;5.90;2.33;;;6.70;1.00;6.90;101090.00;;;;5039129;28;20425;-77
2022/02/25 09:52:55;;;;;;;8.23;3.20;;;6.50;1.00;7.10;101101.00;;;;5047530;28;20489;-79
2022/02/25 09:55:27;;;;;;;13.93;3.00;;;6.50;1.00;7.20;101101.00;;;;5044097;28;20495;-78
2022/02/25 09:58:00;;;;;;;5.80;2.90;;;6.70;1.00;7.40;101117.00;;;;5043306;28;20446;-78
2022/02/25 10:00:31;;;;;;;8.20;3.30;;;6.90;1.00;7.50;101119.00;;;;5028764;28;20471;-78
2022/02/25 10:03:02;;;;;;;8.20;3.40;;;7.10;1.00;7.40;101099.00;;;;5028989;28;20500;-78
2022/02/25 10:05:34;;;;;;;8.63;3.17;;;7.00;1.00;7.60;101111.00;;;;5023711;28;20453;-79
2022/02/25 10:08:12;;;;;;;15.17;4.17;;;7.00;1.00;7.70;101108.00;;;;5024557;28;20480;-77
2022/02/25 10:10:47;;;;;;;9.60;2.90;;;7.20;1.00;8.00;101120.00;;;;5026858;28;20453;-78
2022/02/25 10:13:19;;;;;;;11.53;3.63;;;7.50;1.00;8.00;101120.00;;;;5028759;28;20486;-80
2022/02/25 10:15:51;;;;;;;8.07;2.53;;;7.50;1.00;8.00;101122.00;;;;5026861;28;20457;-79
2022/02/25 10:18:23;;;;;;;6.93;2.90;;;7.50;1.00;8.00;101129.00;;;;5023610;28;20457;-79
2022/02/25 10:21:01;;;;;;;5.53;2.37;;;7.50;1.00;7.70;101115.00;;;;5026137;28;20944;-80
2022/02/25 10:23:32;;;;;;;11.57;3.23;;;7.40;1.00;7.60;101102.00;;;;5024341;28;20476;-78
2022/02/25 10:26:14;;;;;;;8.70;3.17;;;7.20;1.00;7.50;101131.00;;;;5030233;28;20522;-78
2022/02/25 10:28:45;;;;;;;8.60;3.23;;;7.00;1.00;7.70;101123.00;;;;5018077;28;20468;-79
2022/02/25 10:31:27;;;;;;;8.83;3.80;;;7.10;1.00;7.90;101128.00;;;;5016823;28;20501;-77
2022/02/25 10:34:06;;;;;;;8.83;2.40;;;7.40;1.00;7.70;101123.00;;;;5013184;28;20965;-78
2022/02/25 10:36:45;;;;;;;14.00;3.00;;;7.30;1.00;7.50;101091.00;;;;5014372;28;21131;-78
2022/02/25 10:39:19;;;;;;;13.47;3.40;;;7.10;1.00;7.30;101117.00;;;;5036379;28;20494;-78
2022/02/25 10:42:05;;;;;;;6.60;3.10;;;6.90;1.00;7.30;101127.00;;;;5025170;28;20467;-78
2022/02/25 10:44:42;;;;;;;11.43;3.60;;;6.80;1.00;7.20;101128.00;;;;5015929;28;20867;-79
2022/02/25 10:47:21;;;;;;;9.13;3.47;;;6.80;1.00;7.30;101124.00;;;;5020842;28;20459;-78
2022/02/25 10:49:59;;;;;;;9.63;2.50;;;6.90;1.00;7.40;101146.00;;;;5022763;28;20957;-78
2022/02/25 10:52:32;;;;;;;12.77;2.97;;;7.00;1.00;7.50;101116.00;;;;5018776;28;20476;-79
2022/02/25 10:55:03;;;;;;;11.27;3.20;;;7.10;1.00;7.40;101094.00;;;;5023957;28;20468;-79
2022/02/25 10:57:36;;;;;;;9.40;3.50;;;7.00;1.00;7.70;101121.00;;;;5029060;28;20481;-79
2022/02/25 11:00:12;;;;;;;6.63;3.03;;;7.20;1.00;7.80;101114.00;;;;5044008;28;20424;-79
2022/02/25 11:02:44;;;;;;;9.73;3.93;;;7.30;1.00;7.80;101095.00;;;;5024888;28;20559;-80
2022/02/25 11:05:16;;;;;;;11.20;3.30;;;7.40;1.00;7.80;101118.00;;;;5017073;28;20468;-79
2022/02/25 11:07:47;;;;;;;8.00;2.80;;;7.30;1.00;7.50;101123.00;;;;5016968;28;21452;-79
2022/02/25 11:10:21;;;;;;;8.57;3.30;;;7.30;1.00;7.30;101134.00;;;;5019234;28;20485;-80
2022/02/25 11:12:51;;;;;;;7.17;2.43;;;6.90;1.00;7.20;101116.00;;;;5018030;28;20489;-79
2022/02/25 11:15:22;;;;;;;4.50;2.20;;;6.80;1.00;7.10;101130.00;;;;5034239;28;20848;-79
2022/02/25 11:17:54;;;;;;;7.40;2.60;;;6.70;1.00;7.20;101129.00;;;;5016430;28;20472;-79
2022/02/25 11:20:26;;;;;;;9.60;3.07;;;6.70;1.00;7.20;101138.00;;;;5038250;28;20492;-80
2022/02/25 11:22:58;;;;;;;8.57;3.10;;;6.70;1.00;7.20;101141.00;;;;5025678;28;20513;-79
2022/02/25 11:25:29;;;;;;;5.50;2.10;;;6.80;1.00;7.30;101133.00;;;;5022206;28;20448;-81
2022/02/25 11:27:58;;;;;;;7.00;2.40;;;7.00;1.00;7.40;101141.00;;;;5017937;28;20599;-79
2022/02/25 11:30:32;;;;;;;11.53;3.23;;;6.90;1.00;7.40;101144.00;;;;5022263;28;20448;-79